Cairns International Airport
YBCS : rendu visible

Aérodrome :











RETROUVEZ-NOUS SUR...

 
LOGIN :

S'inscrire | Disclaimer

   EN    FR    IT 

 









Légende :    VFR   VFR Marginal   IFR   IFR Intensif   IFR Très Intensif
Visi : 
Plafond : 
>= 8 km
>= 3000ft
5 à 8 km
1000 à 3000 ft
1500m à 5 km
500 à 1000 ft
800 à 1500m
200 à 500 ft
< 800m
< 200 ft
Symboles :   Orages  Brouillard  Fortes neiges  Fortes précipitations  Vent > 20 kt






- Altitude de l'aérodrome : 10 ft
- Code IATA : CNS


YBCS - Cairns International

DERNIER METAR :
  • 020300Z AUTO 12010KT 9999 // NCD 28/18 Q1016 NOSIG

METARs EXPIRÉS :
  • 020230Z AUTO 12010KT 9999 // NCD 28/17 Q1017 NOSIG
  • 020200Z AUTO 15009KT 9999 // NCD 28/17 Q1017
  • 020130Z AUTO 13007KT 9999 // NCD 27/17 Q1017 NOSIG
  • 020100Z AUTO 17007KT 9999 // NCD 27/18 Q1017 NOSIG
  • 020030Z AUTO 16008KT 9999 // NCD 26/18 Q1018 NOSIG

TAF TAF YBCS
Valide du 02 à 00h jusqu'au 03 à 00h UTC


012320Z 0200/0300 13010KT 9999 FEW040
FM021200 19007KT 9999 SCT020 BKN030
FM022300 14015KT 9999 SCT035
FIR YBBB / Océanie



MET'MAP, la Météo Aéronautique d'un coup d'oeil ! - Copyright ORBIFLY Décembre 2007 - Disclaimer

ORBIFLY MET'MAP TEAM :

Programmation & Développement : Alexandra Zaïnal
Sur une idée originale de : Baudouin d'Aumeries
Assistance à la programmation : Marc-Olivier Méhu
Soutien technique & logistique : Manuel Goepfert

Contact : metmap@orbifly.com




SOURCES & CREDITS :

   NOAA       Earth
Advisory